createdAt,value
2022-10-31T00:01:15.347Z,97993.91
2022-10-31T00:03:48.930Z,97994.53
2022-10-31T00:06:23.218Z,97994.54
2022-10-31T00:08:59.563Z,97995.07
2022-10-31T00:11:32.726Z,97998.49
2022-10-31T00:14:05.885Z,98000.45
2022-10-31T00:16:38.612Z,97997.51
2022-10-31T00:19:11.597Z,97993.20
2022-10-31T00:21:44.169Z,97996.88
2022-10-31T00:24:16.988Z,97997.23
2022-10-31T00:26:53.507Z,97995.32
2022-10-31T00:29:27.878Z,97994.44
2022-10-31T00:32:00.357Z,97995.55
2022-10-31T00:34:33.159Z,97995.28
2022-10-31T00:37:06.118Z,98000.53
2022-10-31T00:39:39.166Z,98000.77
2022-10-31T00:42:12.200Z,98001.52
2022-10-31T00:44:44.716Z,98002.95
2022-10-31T00:47:20.417Z,98001.63
2022-10-31T00:49:53.127Z,98005.38
2022-10-31T00:52:24.691Z,98005.95
2022-10-31T00:54:58.807Z,98003.38
2022-10-31T00:57:31.447Z,98000.41
2022-10-31T01:00:04.361Z,98002.22
2022-10-31T01:02:37.197Z,98000.36
2022-10-31T01:05:10.573Z,97997.52
2022-10-31T01:07:44.718Z,97997.79
2022-10-31T01:10:15.507Z,97995.98
2022-10-31T01:12:52.478Z,97993.80
2022-10-31T01:15:28.276Z,97991.02
2022-10-31T01:18:01.366Z,97993.28
2022-10-31T01:20:37.677Z,97993.32
2022-10-31T01:23:08.397Z,97992.89
2022-10-31T01:25:41.206Z,97993.39
2022-10-31T01:28:15.118Z,97995.13
2022-10-31T01:30:53.297Z,97992.79
2022-10-31T01:33:25.937Z,97991.25
2022-10-31T01:36:03.137Z,97987.64
2022-10-31T01:38:38.587Z,97990.23
2022-10-31T01:41:14.178Z,97982.65
2022-10-31T01:43:56.537Z,97987.84
2022-10-31T01:46:32.808Z,97988.75
2022-10-31T01:49:15.017Z,97985.85
2022-10-31T01:51:55.457Z,97985.88
2022-10-31T01:54:33.457Z,97982.98
2022-10-31T01:57:09.818Z,97986.85
2022-10-31T01:59:48.207Z,97985.22
2022-10-31T02:02:22.240Z,97984.41
2022-10-31T02:04:56.332Z,97985.70
2022-10-31T02:07:36.178Z,97983.60
2022-10-31T02:10:10.117Z,97986.58
2022-10-31T02:12:48.477Z,97987.66
2022-10-31T02:15:21.207Z,97984.59
2022-10-31T02:17:54.720Z,97987.08
2022-10-31T02:20:32.687Z,97990.77
2022-10-31T02:23:32.196Z,97992.39
2022-10-31T02:26:23.567Z,97993.33
2022-10-31T02:29:18.637Z,97992.63
2022-10-31T02:32:01.464Z,97990.09
2022-10-31T02:34:41.777Z,97992.28
2022-10-31T02:37:22.686Z,97990.77
2022-10-31T02:40:02.094Z,97992.80
2022-10-31T02:43:00.503Z,97991.38
2022-10-31T02:45:41.869Z,97997.11
2022-10-31T02:48:17.697Z,97998.39
2022-10-31T02:50:57.568Z,97998.79
2022-10-31T02:53:34.870Z,97999.44
2022-10-31T02:56:14.001Z,98002.25
2022-10-31T02:58:50.687Z,98003.64
2022-10-31T03:01:53.535Z,98004.50
2022-10-31T03:04:52.048Z,98001.91
2022-10-31T03:07:33.929Z,98004.17
2022-10-31T03:10:16.159Z,98004.11
2022-10-31T03:13:00.113Z,98004.20
2022-10-31T03:15:37.772Z,98005.73
2022-10-31T03:18:15.918Z,98008.11
2022-10-31T03:20:52.446Z,98013.95
2022-10-31T03:23:28.285Z,98011.38
2022-10-31T03:26:03.919Z,98014.96
2022-10-31T03:28:44.512Z,98015.46
2022-10-31T03:31:21.126Z,98011.79
2022-10-31T03:33:56.857Z,98013.51
2022-10-31T03:36:33.168Z,98015.74
2022-10-31T03:39:09.139Z,98015.40
2022-10-31T03:41:48.197Z,98016.70
2022-10-31T03:44:24.087Z,98018.05
2022-10-31T03:47:05.059Z,98020.57
2022-10-31T03:49:40.592Z,98021.23
2022-10-31T03:52:24.568Z,98025.00
2022-10-31T03:55:01.918Z,98026.02
2022-10-31T03:57:41.178Z,98026.35
2022-10-31T04:00:19.974Z,98027.91
2022-10-31T04:02:59.518Z,98028.79
2022-10-31T04:05:34.937Z,98022.93
2022-10-31T04:08:13.995Z,98024.44
2022-10-31T04:10:51.190Z,98022.86
2022-10-31T04:13:28.123Z,98023.73
2022-10-31T04:16:15.981Z,98025.49
2022-10-31T04:18:50.157Z,98022.60
2022-10-31T04:21:29.208Z,98023.79
2022-10-31T04:24:03.827Z,98021.83
2022-10-31T04:26:37.337Z,98020.91
2022-10-31T04:29:10.220Z,98020.23
2022-10-31T04:31:44.430Z,98020.02
2022-10-31T04:34:17.409Z,98021.52
2022-10-31T04:36:49.926Z,98022.52
2022-10-31T04:39:26.772Z,98025.06
2022-10-31T04:42:35.487Z,98027.52
2022-10-31T04:45:10.681Z,98029.98
2022-10-31T04:47:43.777Z,98031.73
2022-10-31T04:50:16.990Z,98031.42
2022-10-31T04:52:51.377Z,98033.71
2022-10-31T04:55:27.048Z,98030.10
2022-10-31T04:58:25.838Z,98031.02
2022-10-31T05:00:59.024Z,98033.39
2022-10-31T05:03:32.687Z,98031.34
2022-10-31T05:06:05.677Z,98032.39
2022-10-31T05:08:38.557Z,98034.83
2022-10-31T05:11:12.548Z,98036.73
2022-10-31T05:13:45.511Z,98035.21
2022-10-31T05:16:20.015Z,98039.94
2022-10-31T05:19:11.991Z,98041.23
2022-10-31T05:22:03.849Z,98043.17
2022-10-31T05:24:38.373Z,98046.64
2022-10-31T05:27:11.049Z,98048.92
2022-10-31T05:29:44.079Z,98045.81
2022-10-31T05:32:17.678Z,98042.91
2022-10-31T05:35:12.199Z,98045.35
2022-10-31T05:38:07.243Z,98047.55
2022-10-31T05:40:40.319Z,98053.77
2022-10-31T05:43:13.608Z,98055.47
2022-10-31T05:45:49.328Z,98058.71
2022-10-31T05:48:41.948Z,98054.88
2022-10-31T05:51:33.367Z,98055.90
2022-10-31T05:54:06.168Z,98053.97
2022-10-31T05:56:38.897Z,98056.90
2022-10-31T05:59:11.677Z,98054.77
2022-10-31T06:01:45.342Z,98056.48
2022-10-31T06:04:40.901Z,98055.62
2022-10-31T06:07:14.507Z,98051.08
2022-10-31T06:09:47.378Z,98052.38
2022-10-31T06:12:21.497Z,98055.90
2022-10-31T06:15:13.417Z,98056.63
2022-10-31T06:17:44.275Z,98059.59
2022-10-31T06:20:43.207Z,98061.98
2022-10-31T06:23:17.107Z,98066.45
2022-10-31T06:25:54.818Z,98070.84
2022-10-31T06:28:27.598Z,98074.55
2022-10-31T06:31:06.123Z,98083.43
2022-10-31T06:33:45.541Z,98088.27
2022-10-31T06:36:18.262Z,98089.44
2022-10-31T06:38:57.316Z,98090.45
2022-10-31T06:41:30.137Z,98091.20
2022-10-31T06:44:06.423Z,98093.88
2022-10-31T06:47:00.336Z,98095.69
2022-10-31T06:49:39.448Z,98094.02
2022-10-31T06:52:19.757Z,98096.80
2022-10-31T06:54:52.448Z,98098.69
2022-10-31T06:57:25.613Z,98098.02
2022-10-31T06:59:58.545Z,98096.13
2022-10-31T07:06:04.668Z,98099.20
2022-10-31T07:08:38.368Z,98099.41
2022-10-31T07:11:11.547Z,98102.81
2022-10-31T07:13:45.132Z,98101.83
2022-10-31T07:16:18.437Z,98107.08
2022-10-31T07:18:53.969Z,98107.00
2022-10-31T07:21:27.080Z,98107.02
2022-10-31T07:23:59.867Z,98112.30
2022-10-31T07:26:47.523Z,98106.33
2022-10-31T07:29:20.415Z,98104.70
2022-10-31T07:31:54.775Z,98102.96
2022-10-31T07:34:31.197Z,98106.13
2022-10-31T07:37:22.788Z,98105.52
2022-10-31T07:39:55.476Z,98106.29
2022-10-31T07:42:28.557Z,98105.59
2022-10-31T07:45:01.147Z,98108.73
2022-10-31T07:48:00.354Z,98110.57
2022-10-31T07:50:54.780Z,98111.55
2022-10-31T07:54:06.138Z,98111.48
2022-10-31T07:56:38.778Z,98110.52
2022-10-31T07:59:11.958Z,98110.23
2022-10-31T08:01:45.055Z,98106.59
2022-10-31T08:04:36.648Z,98110.80
2022-10-31T08:07:27.908Z,98111.99
2022-10-31T08:10:04.461Z,98112.33
2022-10-31T08:12:37.507Z,98111.83
2022-10-31T08:15:14.708Z,98113.49
2022-10-31T08:17:50.727Z,98110.68
2022-10-31T08:20:27.891Z,98114.06
2022-10-31T08:23:08.868Z,98112.06
2022-10-31T08:25:48.550Z,98111.23
2022-10-31T08:28:21.316Z,98113.20
2022-10-31T08:31:00.387Z,98111.65
2022-10-31T08:33:47.768Z,98112.52
2022-10-31T08:36:56.487Z,98106.79
2022-10-31T08:39:39.720Z,98110.80
2022-10-31T08:42:12.427Z,98115.10
2022-10-31T08:44:45.127Z,98112.09
2022-10-31T08:47:18.948Z,98114.00
2022-10-31T08:49:51.910Z,98113.23
2022-10-31T08:52:51.261Z,98113.48
2022-10-31T08:55:22.247Z,98111.66
2022-10-31T08:58:17.083Z,98114.50
2022-10-31T09:00:58.748Z,98112.04
2022-10-31T09:03:33.813Z,98113.12
2022-10-31T09:06:10.229Z,98114.23
2022-10-31T09:08:43.175Z,98119.34
2022-10-31T09:11:17.202Z,98120.83
2022-10-31T09:14:19.391Z,98120.52
2022-10-31T09:17:16.098Z,98125.38
2022-10-31T09:20:15.197Z,98120.68
2022-10-31T09:22:48.378Z,98117.80
2022-10-31T09:25:21.345Z,98121.09
2022-10-31T09:28:04.194Z,98121.66
2022-10-31T09:30:38.637Z,98127.08
2022-10-31T09:33:13.018Z,98130.20
2022-10-31T09:35:47.808Z,98134.49
2022-10-31T09:38:22.087Z,98131.65
2022-10-31T09:41:04.999Z,98136.67
2022-10-31T09:43:47.907Z,98133.83
2022-10-31T09:46:30.646Z,98136.13
2022-10-31T09:49:27.483Z,98134.92
2022-10-31T09:52:08.188Z,98133.67
2022-10-31T09:54:45.471Z,98138.01
2022-10-31T09:57:22.577Z,98137.64
2022-10-31T09:59:55.603Z,98139.48
2022-10-31T10:02:37.595Z,98134.69
2022-10-31T10:05:15.538Z,98142.48
2022-10-31T10:07:58.037Z,98142.66
2022-10-31T10:10:56.687Z,98140.50
2022-10-31T10:14:09.435Z,98140.45
2022-10-31T10:17:05.248Z,98142.77
2022-10-31T10:19:53.087Z,98141.02
2022-10-31T10:22:33.509Z,98139.48
2022-10-31T10:25:18.045Z,98138.19
2022-10-31T10:28:06.422Z,98136.30
2022-10-31T10:30:46.922Z,98134.43
2022-10-31T10:33:25.576Z,98134.61
2022-10-31T10:36:01.777Z,98138.48
2022-10-31T10:38:40.987Z,98141.50
2022-10-31T10:41:19.157Z,98139.08
2022-10-31T10:43:55.817Z,98137.36
2022-10-31T10:46:54.087Z,98136.21
2022-10-31T10:49:36.039Z,98134.19
2022-10-31T10:55:19.398Z,98138.54
2022-10-31T10:58:01.775Z,98134.29
2022-10-31T11:00:38.115Z,98133.02
2022-10-31T11:03:14.208Z,98129.17
2022-10-31T11:05:54.780Z,98128.27
2022-10-31T11:08:31.852Z,98130.27
2022-10-31T11:11:08.079Z,98132.55
2022-10-31T11:13:43.919Z,98129.34
2022-10-31T11:16:39.580Z,98129.73
2022-10-31T11:19:19.989Z,98127.29
2022-10-31T11:21:54.188Z,98128.35
2022-10-31T11:24:29.107Z,98127.54
2022-10-31T11:27:19.461Z,98127.96
2022-10-31T11:29:54.580Z,98128.14
2022-10-31T11:32:32.187Z,98127.10
2022-10-31T11:35:12.606Z,98126.62
2022-10-31T11:37:48.788Z,98127.71
2022-10-31T11:40:24.158Z,98123.02
2022-10-31T11:43:00.934Z,98122.86
2022-10-31T11:45:38.340Z,98121.19
2022-10-31T11:48:22.087Z,98120.70
2022-10-31T11:50:58.177Z,98118.50
2022-10-31T11:53:33.717Z,98112.98
2022-10-31T11:56:15.726Z,98111.27
2022-10-31T11:58:57.559Z,98111.19
2022-10-31T12:01:31.994Z,98105.45
2022-10-31T12:04:09.827Z,98101.52
2022-10-31T12:06:44.910Z,98105.84
2022-10-31T12:09:24.208Z,98103.22
2022-10-31T12:12:32.127Z,98103.98
2022-10-31T12:15:18.807Z,98099.95
2022-10-31T12:20:48.528Z,98097.61
2022-10-31T12:23:35.087Z,98095.86
2022-10-31T12:26:18.336Z,98095.95
2022-10-31T12:29:05.447Z,98098.98
2022-10-31T12:31:57.167Z,98094.34
2022-10-31T12:34:49.216Z,98096.13
2022-10-31T12:37:34.846Z,98096.26
2022-10-31T12:40:22.287Z,98096.63
2022-10-31T12:43:08.847Z,98101.09
2022-10-31T12:45:53.937Z,98098.11
2022-10-31T12:48:55.506Z,98096.41
2022-10-31T12:51:39.896Z,98098.63
2022-10-31T12:54:28.817Z,98096.05
2022-10-31T12:57:13.717Z,98093.28
2022-10-31T12:59:50.967Z,98095.62
2022-10-31T13:02:27.187Z,98094.19
2022-10-31T13:05:04.217Z,98092.85
2022-10-31T13:07:43.049Z,98094.68
2022-10-31T13:10:23.848Z,98092.98
2022-10-31T13:13:06.338Z,98096.55
2022-10-31T13:15:53.678Z,98093.15
2022-10-31T13:18:35.854Z,98096.66
2022-10-31T13:21:14.288Z,98097.69
2022-10-31T13:23:52.608Z,98097.80
2022-10-31T13:26:39.516Z,98098.01
2022-10-31T13:29:20.067Z,98096.75
2022-10-31T13:31:53.037Z,98096.73
2022-10-31T13:34:30.176Z,98098.42
2022-10-31T13:37:09.567Z,98095.63
2022-10-31T13:40:01.782Z,98095.09
2022-10-31T13:42:48.228Z,98093.98
2022-10-31T13:45:25.259Z,98094.89
2022-10-31T13:48:03.777Z,98092.84
2022-10-31T13:50:38.175Z,98093.01
2022-10-31T13:53:38.037Z,98094.71
2022-10-31T13:56:23.700Z,98095.95
2022-10-31T13:59:09.168Z,98090.00
2022-10-31T14:01:51.469Z,98096.71
2022-10-31T14:04:26.832Z,98092.48
2022-10-31T14:07:11.358Z,98094.45
2022-10-31T14:09:55.377Z,98088.16
2022-10-31T14:12:33.650Z,98088.91
2022-10-31T14:15:17.003Z,98087.60
2022-10-31T14:17:53.456Z,98082.41
2022-10-31T14:20:42.429Z,98080.48
2022-10-31T14:23:44.066Z,98081.25
2022-10-31T14:26:38.169Z,98082.09
2022-10-31T14:29:31.857Z,98083.75
2022-10-31T14:32:12.368Z,98085.39
2022-10-31T14:34:53.707Z,98084.85
2022-10-31T14:37:38.770Z,98081.45
2022-10-31T14:40:28.988Z,98082.25
2022-10-31T14:43:24.177Z,98082.20
2022-10-31T14:46:04.812Z,98085.98
2022-10-31T14:48:55.188Z,98081.29
2022-10-31T14:51:32.359Z,98083.95
2022-10-31T14:54:07.491Z,98085.41
2022-10-31T14:56:49.297Z,98084.27
2022-10-31T14:59:27.918Z,98085.55
2022-10-31T15:02:04.891Z,98084.40
2022-10-31T15:04:40.198Z,98080.60
2022-10-31T15:07:23.331Z,98083.34
2022-10-31T15:10:04.709Z,98084.02
2022-10-31T15:12:40.277Z,98086.08
2022-10-31T15:15:23.541Z,98086.14
2022-10-31T15:18:01.297Z,98086.79
2022-10-31T15:20:41.458Z,98089.91
2022-10-31T15:23:19.227Z,98089.52
2022-10-31T15:25:51.926Z,98090.47
2022-10-31T15:28:28.287Z,98089.00
2022-10-31T15:31:04.669Z,98086.02
2022-10-31T15:33:48.380Z,98085.85
2022-10-31T15:36:29.076Z,98081.87
2022-10-31T15:39:04.135Z,98083.70
2022-10-31T15:41:41.211Z,98084.16
2022-10-31T15:44:21.118Z,98085.67
2022-10-31T15:47:00.387Z,98085.05
2022-10-31T15:49:40.177Z,98087.48
2022-10-31T15:52:18.727Z,98087.98
2022-10-31T15:54:58.069Z,98090.11
2022-10-31T15:57:31.909Z,98091.36
2022-10-31T16:00:04.930Z,98090.30
2022-10-31T16:02:38.284Z,98090.87
2022-10-31T16:05:22.368Z,98090.83
2022-10-31T16:07:56.628Z,98093.87
2022-10-31T16:10:35.302Z,98093.86
2022-10-31T16:13:12.949Z,98100.02
2022-10-31T16:16:08.808Z,98101.24
2022-10-31T16:18:48.038Z,98106.77
2022-10-31T16:21:30.507Z,98104.73
2022-10-31T16:24:06.545Z,98104.39
2022-10-31T16:26:39.397Z,98107.66
2022-10-31T16:29:35.238Z,98110.11
2022-10-31T16:32:26.539Z,98110.48
2022-10-31T16:35:27.379Z,98106.48
2022-10-31T16:38:00.484Z,98105.75
2022-10-31T16:40:34.398Z,98108.42
2022-10-31T16:43:12.177Z,98107.15
2022-10-31T16:45:50.617Z,98109.08
2022-10-31T16:48:25.257Z,98112.14
2022-10-31T16:50:58.107Z,98110.40
2022-10-31T16:53:32.941Z,98106.95
2022-10-31T16:56:07.426Z,98109.55
2022-10-31T16:58:40.478Z,98110.29
2022-10-31T17:01:14.475Z,98110.34
2022-10-31T17:03:47.450Z,98109.45
2022-10-31T17:06:20.159Z,98106.75
2022-10-31T17:09:13.029Z,98111.59
2022-10-31T17:11:50.568Z,98109.00
2022-10-31T17:14:23.779Z,98113.33
2022-10-31T17:16:59.517Z,98111.95
2022-10-31T17:19:32.320Z,98114.29
2022-10-31T17:22:05.798Z,98109.48
2022-10-31T17:24:43.094Z,98111.80
2022-10-31T17:27:21.439Z,98110.23
2022-10-31T17:29:54.428Z,98110.01
2022-10-31T17:32:27.298Z,98112.15
2022-10-31T17:35:00.177Z,98111.67
2022-10-31T17:37:33.137Z,98112.99
2022-10-31T17:40:06.188Z,98112.38
2022-10-31T17:42:39.397Z,98112.43
2022-10-31T17:45:14.688Z,98111.34
2022-10-31T17:47:48.855Z,98114.17
2022-10-31T17:50:25.606Z,98112.18
2022-10-31T17:53:00.190Z,98110.10
2022-10-31T17:55:36.140Z,98113.08
2022-10-31T17:58:15.909Z,98107.90
2022-10-31T18:00:52.572Z,98108.30
2022-10-31T18:03:25.397Z,98104.45
2022-10-31T18:06:00.208Z,98105.54
2022-10-31T18:08:35.271Z,98100.75
2022-10-31T18:11:12.097Z,98103.98
2022-10-31T18:13:47.167Z,98101.68
2022-10-31T18:16:20.997Z,98102.64
2022-10-31T18:18:56.938Z,98101.52
2022-10-31T18:21:29.720Z,98101.01
2022-10-31T18:24:07.834Z,98097.27
2022-10-31T18:26:40.667Z,98093.73
2022-10-31T18:29:14.957Z,98092.70
2022-10-31T18:31:56.369Z,98093.29
2022-10-31T18:34:34.608Z,98093.72
2022-10-31T18:37:13.817Z,98092.15
2022-10-31T18:39:52.715Z,98093.93
2022-10-31T18:42:32.199Z,98093.23
2022-10-31T18:45:31.386Z,98090.36
2022-10-31T18:48:16.383Z,98100.46
2022-10-31T18:54:03.559Z,98098.79
2022-10-31T18:56:44.048Z,98097.30
2022-10-31T18:59:24.790Z,98091.81
2022-10-31T19:02:06.460Z,98092.87
2022-10-31T19:04:44.599Z,98089.73
2022-10-31T19:07:40.258Z,98087.67
2022-10-31T19:10:28.499Z,98083.62
2022-10-31T19:13:08.411Z,98086.34
2022-10-31T19:15:53.768Z,98085.40
2022-10-31T19:18:32.639Z,98082.14
2022-10-31T19:21:26.546Z,98081.45
2022-10-31T19:24:03.540Z,98078.31
2022-10-31T19:26:57.379Z,98079.45
2022-10-31T19:29:43.945Z,98079.71
2022-10-31T19:32:20.585Z,98081.36
2022-10-31T19:34:58.437Z,98077.09
2022-10-31T19:37:33.987Z,98073.44
2022-10-31T19:40:14.317Z,98075.69
2022-10-31T19:42:57.223Z,98078.95
2022-10-31T19:45:38.538Z,98082.88
2022-10-31T19:48:13.728Z,98081.45
2022-10-31T19:50:51.201Z,98084.03
2022-10-31T19:53:30.597Z,98088.57
2022-10-31T19:56:14.349Z,98089.08
2022-10-31T19:58:55.117Z,98092.63
2022-10-31T20:01:40.130Z,98087.23
2022-10-31T20:04:23.347Z,98089.24
2022-10-31T20:07:24.308Z,98088.08
2022-10-31T20:10:01.991Z,98086.54
2022-10-31T20:12:37.947Z,98083.11
2022-10-31T20:15:19.757Z,98078.80
2022-10-31T20:17:56.247Z,98078.40
2022-10-31T20:20:29.208Z,98076.69
2022-10-31T20:23:02.404Z,98075.20
2022-10-31T20:25:38.959Z,98071.75
2022-10-31T20:28:11.986Z,98074.83
2022-10-31T20:30:44.907Z,98073.76
2022-10-31T20:33:18.578Z,98075.27
2022-10-31T20:35:52.037Z,98074.05
2022-10-31T20:38:26.768Z,98070.15
2022-10-31T20:41:04.338Z,98068.94
2022-10-31T20:43:38.348Z,98065.77
2022-10-31T20:46:12.898Z,98061.61
2022-10-31T20:48:46.367Z,98061.48
2022-10-31T20:51:22.039Z,98056.50
2022-10-31T20:53:55.931Z,98060.73
2022-10-31T20:56:29.976Z,98062.80
2022-10-31T20:59:02.536Z,98060.45
2022-10-31T21:01:38.246Z,98059.04
2022-10-31T21:04:12.519Z,98057.63
2022-10-31T21:06:49.642Z,98054.97
2022-10-31T21:09:23.327Z,98055.86
2022-10-31T21:11:56.180Z,98055.13
2022-10-31T21:14:30.938Z,98052.89
2022-10-31T21:17:04.473Z,98050.92
2022-10-31T21:19:42.759Z,98054.89
2022-10-31T21:22:16.427Z,98052.30
2022-10-31T21:24:49.197Z,98049.17
2022-10-31T21:27:24.798Z,98048.48
2022-10-31T21:29:59.676Z,98046.48
2022-10-31T21:32:32.598Z,98044.29
2022-10-31T21:35:05.547Z,98043.08
2022-10-31T21:37:38.289Z,98041.68
2022-10-31T21:40:13.037Z,98043.47
2022-10-31T21:42:45.717Z,98042.39
2022-10-31T21:45:18.279Z,98043.52
2022-10-31T21:47:51.487Z,98040.66
2022-10-31T21:50:25.008Z,98039.55
2022-10-31T21:52:56.677Z,98036.20
2022-10-31T21:55:29.459Z,98033.54
2022-10-31T21:58:02.865Z,98029.13
2022-10-31T22:00:35.957Z,98024.64
2022-10-31T22:03:10.133Z,98021.52
2022-10-31T22:05:42.790Z,98017.93
2022-10-31T22:08:15.660Z,98014.89
2022-10-31T22:10:48.189Z,98013.51
2022-10-31T22:13:19.948Z,98007.63
2022-10-31T22:15:52.558Z,98005.81
2022-10-31T22:18:25.438Z,98003.67
2022-10-31T22:21:04.647Z,98001.92
2022-10-31T22:23:38.080Z,97998.14
2022-10-31T22:26:09.248Z,98001.70
2022-10-31T22:28:42.298Z,98001.10
2022-10-31T22:31:16.540Z,97998.85
2022-10-31T22:33:49.761Z,97995.70
2022-10-31T22:36:23.845Z,97994.25
2022-10-31T22:38:56.387Z,97995.65
2022-10-31T22:41:34.098Z,97990.11
2022-10-31T22:44:08.158Z,97990.27
2022-10-31T22:46:41.947Z,97984.80
2022-10-31T22:49:17.077Z,97990.95
2022-10-31T22:51:53.887Z,97985.55
2022-10-31T22:54:26.558Z,97989.64
2022-10-31T22:56:59.227Z,97987.15
2022-10-31T22:59:32.206Z,97986.90
2022-10-31T23:02:08.393Z,97982.09
2022-10-31T23:04:42.757Z,97982.27
2022-10-31T23:07:15.760Z,97975.50
2022-10-31T23:09:48.962Z,97973.95
2022-10-31T23:12:38.847Z,97971.05
2022-10-31T23:15:12.701Z,97971.09
2022-10-31T23:17:46.967Z,97967.93
2022-10-31T23:20:19.680Z,97967.84
2022-10-31T23:22:52.329Z,97967.22
2022-10-31T23:25:42.102Z,97961.23
2022-10-31T23:28:16.147Z,97960.38
2022-10-31T23:30:50.568Z,97956.85
2022-10-31T23:33:29.110Z,97948.80
2022-10-31T23:36:04.408Z,97948.11
2022-10-31T23:38:37.670Z,97943.73
2022-10-31T23:41:10.399Z,97942.55
2022-10-31T23:43:43.095Z,97942.17
2022-10-31T23:46:15.746Z,97938.23
2022-10-31T23:48:49.917Z,97935.64
2022-10-31T23:51:22.728Z,97933.73
2022-10-31T23:53:55.677Z,97928.56
2022-10-31T23:56:28.167Z,97928.05
2022-10-31T23:59:00.937Z,97924.43
